Aviation Digital Data Service (ADDS)

Output produced by METARs form (0558 UTC 03 July 2022)
found at http://www.aviationweather.gov/metar/data/
 
METAR text: EPWA 030530Z 36006KT 330V030 CAVOK 19/12 Q1022 NOSIG
Conditions at: EPWA (WARSAW/OKECIE , PL) observed 0530 UTC 03 July 2022
Temperature: 19.0°C (66°F)
Dewpoint: 12.0°C (54°F) [RH = 64%]
Pressure (altimeter): 30.18 inches Hg (1022.0 mb)
Winds: from the N (360 degrees) at 7 MPH (6 knots; 3.1 m/s)
Visibility: 6 or more miles (10+ km)
Ceiling: ceiling and visibility are OK
Clouds: unknown
Weather: no significant weather observed at this time

METAR text: EPWA 030500Z 02004KT CAVOK 19/13 Q1022 NOSIG
Conditions at: EPWA (WARSAW/OKECIE , PL) observed 0500 UTC 03 July 2022
Temperature: 19.0°C (66°F)
Dewpoint: 13.0°C (55°F) [RH = 68%]
Pressure (altimeter): 30.18 inches Hg (1022.0 mb)
Winds: from the NNE (20 degrees) at 5 MPH (4 knots; 2.1 m/s)
Visibility: 6 or more miles (10+ km)
Ceiling: ceiling and visibility are OK
Clouds: unknown
Weather: no significant weather observed at this time

Forecast for: EPWA (WARSAW/OKECIE , PL)
Text: TAF EPWA 030530Z 0306/0406 02006KT CAVOK
Forecast period: 0600 UTC 03 July 2022 to 0600 UTC 04 July 2022
Forecast type: FROM: standard forecast or significant change
Winds: from the NNE (20 degrees) at 7 MPH (6 knots; 3.1 m/s)
Visibility: 6 or more miles (10+ km)
Ceiling: unknown
Clouds: missing
Weather: NSW  (no significant weather)